Time;durP1;ratioP1;P1;durP2;ratioP2;P2;SDS_P1;SDS_P2;PMS_P1;PMS_P2;Temp;Humidity;BMP_temperature;BMP_pressure;BME280_temperature;BME280_humidity;BME280_pressure;Samples;Min_cycle;Max_cycle;Signal;HPM_P1;HPM_P2
2022/01/05 00:04:14;;;;;;;7.23;1.83;;;5.50;99.90;;;;;;4912742;22;22619;-67
2022/01/05 00:06:41;;;;;;;1.47;1.13;;;5.50;99.90;;;;;;4976358;28;20482;-67
2022/01/05 00:09:08;;;;;;;1.20;0.90;;;5.50;99.90;;;;;;4998843;28;21997;-67
2022/01/05 00:11:36;;;;;;;1.47;1.00;;;5.30;99.90;;;;;;5004645;28;20470;-67
2022/01/05 00:14:05;;;;;;;13.17;3.90;;;5.30;99.90;;;;;;5000477;28;20983;-68
2022/01/05 00:16:32;;;;;;;1.27;1.17;;;5.30;99.90;;;;;;4998190;28;20525;-67
2022/01/05 00:18:59;;;;;;;4.40;1.43;;;5.40;99.90;;;;;;5011362;28;20458;-67
2022/01/05 00:21:26;;;;;;;2.33;1.73;;;5.50;99.90;;;;;;5007701;28;20817;-68
2022/01/05 00:23:53;;;;;;;1.93;0.97;;;5.50;99.90;;;;;;4998691;28;20485;-67
2022/01/05 00:26:20;;;;;;;2.30;1.63;;;5.60;99.90;;;;;;5011079;28;20465;-67
2022/01/05 00:28:47;;;;;;;1.23;1.00;;;5.50;99.90;;;;;;5011632;28;20461;-67
2022/01/05 00:31:15;;;;;;;8.53;1.20;;;5.60;99.90;;;;;;5005301;28;21092;-67
2022/01/05 00:33:42;;;;;;;1.23;0.90;;;5.60;99.90;;;;;;4997692;28;20472;-67
2022/01/05 00:36:09;;;;;;;5.43;1.37;;;5.70;99.90;;;;;;4999800;28;20468;-67
2022/01/05 00:38:36;;;;;;;1.00;0.80;;;5.60;99.90;;;;;;5009479;28;20534;-67
2022/01/05 00:41:04;;;;;;;1.20;1.03;;;5.60;99.90;;;;;;5006056;28;20515;-68
2022/01/05 00:43:32;;;;;;;1.10;1.00;;;5.60;99.90;;;;;;4997295;28;20728;-67
2022/01/05 00:45:59;;;;;;;1.60;0.90;;;5.70;99.90;;;;;;5004374;28;20571;-67
2022/01/05 00:48:29;;;;;;;2.43;1.20;;;5.60;99.90;;;;;;5003380;28;20489;-67
2022/01/05 00:50:58;;;;;;;1.43;1.17;;;5.60;99.90;;;;;;4997345;28;20495;-67
2022/01/05 00:53:25;;;;;;;1.60;1.13;;;5.60;99.90;;;;;;5003490;28;20484;-67
2022/01/05 00:55:52;;;;;;;6.57;1.57;;;5.50;99.90;;;;;;5000999;28;20501;-67
2022/01/05 00:58:19;;;;;;;1.67;1.43;;;5.50;99.90;;;;;;5002757;28;20419;-67
2022/01/05 01:00:47;;;;;;;2.07;1.47;;;5.40;99.90;;;;;;4994124;28;20464;-67
2022/01/05 01:03:14;;;;;;;3.70;1.20;;;5.30;99.90;;;;;;4996814;28;20548;-67
2022/01/05 01:05:42;;;;;;;3.20;1.93;;;5.30;99.90;;;;;;5001337;28;20526;-67
2022/01/05 01:08:10;;;;;;;5.17;2.40;;;5.30;99.90;;;;;;5003273;28;20496;-67
2022/01/05 01:10:37;;;;;;;1.60;1.40;;;5.30;99.90;;;;;;5002866;28;20455;-67
2022/01/05 01:13:04;;;;;;;3.43;1.53;;;5.20;99.90;;;;;;5001664;28;20520;-67
2022/01/05 01:15:32;;;;;;;1.53;1.40;;;5.30;99.90;;;;;;5003763;28;20471;-68
2022/01/05 01:17:59;;;;;;;8.77;3.33;;;5.30;99.90;;;;;;4997860;28;20424;-67
2022/01/05 01:20:26;;;;;;;5.33;2.53;;;5.20;99.90;;;;;;5000698;28;21379;-67
2022/01/05 01:22:54;;;;;;;2.37;2.17;;;5.20;99.90;;;;;;5002554;28;20509;-67
2022/01/05 01:25:21;;;;;;;3.10;1.73;;;5.20;99.90;;;;;;5011723;28;20980;-67
2022/01/05 01:27:48;;;;;;;2.67;1.90;;;5.20;99.90;;;;;;5003567;28;20549;-67
2022/01/05 01:30:15;;;;;;;2.23;1.83;;;5.20;99.90;;;;;;5002592;28;20516;-67
2022/01/05 01:32:42;;;;;;;3.57;1.80;;;5.00;99.90;;;;;;4997221;28;20485;-67
2022/01/05 01:35:10;;;;;;;3.40;1.27;;;5.10;99.90;;;;;;5004895;28;20446;-67
2022/01/05 01:37:37;;;;;;;2.43;1.60;;;5.10;99.90;;;;;;4999980;28;20592;-66
2022/01/05 01:40:08;;;;;;;2.50;1.80;;;5.10;99.90;;;;;;5004620;28;20427;-67
2022/01/05 01:42:36;;;;;;;3.37;1.30;;;5.00;99.90;;;;;;5001415;28;20902;-67
2022/01/05 01:45:03;;;;;;;2.80;1.57;;;5.00;99.90;;;;;;5001407;28;20538;-67
2022/01/05 01:47:30;;;;;;;3.00;1.93;;;5.00;99.90;;;;;;5007784;28;20889;-67
2022/01/05 01:49:57;;;;;;;1.13;1.03;;;5.00;99.90;;;;;;4990790;28;20461;-67
2022/01/05 01:52:24;;;;;;;4.90;1.67;;;5.00;99.90;;;;;;4997241;28;20499;-67
2022/01/05 01:54:52;;;;;;;2.23;1.63;;;4.90;99.90;;;;;;5004446;28;20464;-67
2022/01/05 01:57:21;;;;;;;1.30;1.20;;;4.90;99.90;;;;;;5001144;28;21210;-67
2022/01/05 01:59:48;;;;;;;1.73;1.40;;;4.90;99.90;;;;;;5003320;28;20831;-67
2022/01/05 02:02:17;;;;;;;1.00;0.87;;;4.80;99.90;;;;;;4996034;28;20469;-67
2022/01/05 02:04:44;;;;;;;2.70;1.20;;;4.80;99.90;;;;;;4999440;28;20473;-66
2022/01/05 02:07:11;;;;;;;2.00;1.53;;;4.70;99.90;;;;;;5002661;28;20952;-67
2022/01/05 02:09:40;;;;;;;1.70;1.60;;;4.70;99.90;;;;;;5002671;28;20640;-67
2022/01/05 02:12:09;;;;;;;3.80;1.70;;;4.80;99.90;;;;;;5007873;28;20492;-67
2022/01/05 02:14:38;;;;;;;13.30;2.83;;;4.70;99.90;;;;;;4999921;28;20485;-66
2022/01/05 02:17:11;;;;;;;10.53;1.47;;;4.60;99.90;;;;;;4999628;28;20427;-66
2022/01/05 02:19:38;;;;;;;1.87;1.60;;;4.60;99.90;;;;;;5003613;28;20543;-67
2022/01/05 02:22:06;;;;;;;11.37;1.27;;;4.50;99.90;;;;;;5004202;28;20439;-67
2022/01/05 02:24:33;;;;;;;2.47;1.60;;;4.50;99.90;;;;;;4999485;28;20471;-67
2022/01/05 02:27:00;;;;;;;1.83;1.40;;;4.50;99.90;;;;;;5000483;28;20435;-67
2022/01/05 02:29:27;;;;;;;1.87;1.00;;;4.50;99.90;;;;;;4999745;28;20973;-67
2022/01/05 02:31:57;;;;;;;2.10;1.20;;;4.50;99.90;;;;;;4996210;28;20590;-67
2022/01/05 02:34:24;;;;;;;1.73;1.33;;;4.50;99.90;;;;;;4996894;28;20435;-67
2022/01/05 02:36:51;;;;;;;1.23;1.13;;;4.50;99.90;;;;;;5000723;28;20457;-67
2022/01/05 02:39:19;;;;;;;17.30;2.40;;;4.50;99.90;;;;;;5004967;28;20465;-67
2022/01/05 02:41:46;;;;;;;5.53;1.87;;;4.40;99.90;;;;;;4998571;28;20446;-67
2022/01/05 02:44:13;;;;;;;2.03;1.47;;;4.30;99.90;;;;;;5008343;28;20485;-66
2022/01/05 02:46:40;;;;;;;4.90;1.63;;;4.40;99.90;;;;;;4999724;28;20460;-66
2022/01/05 02:49:07;;;;;;;1.67;1.57;;;4.30;99.90;;;;;;4994191;28;20916;-66
2022/01/05 02:51:34;;;;;;;1.93;1.30;;;4.30;99.90;;;;;;5005123;28;21299;-66
2022/01/05 02:54:01;;;;;;;1.07;0.90;;;4.30;99.90;;;;;;5000147;28;20488;-67
2022/01/05 02:56:30;;;;;;;4.83;3.63;;;4.30;99.90;;;;;;4998486;28;20531;-66
2022/01/05 02:58:57;;;;;;;2.30;1.33;;;4.20;99.90;;;;;;4998258;28;20519;-66
2022/01/05 03:01:24;;;;;;;2.50;1.73;;;4.20;99.90;;;;;;4998107;28;20952;-66
2022/01/05 03:03:51;;;;;;;3.87;1.20;;;4.20;99.90;;;;;;5002911;28;20491;-66
2022/01/05 03:06:18;;;;;;;3.73;2.03;;;4.10;99.90;;;;;;5006046;28;20503;-66
2022/01/05 03:08:45;;;;;;;1.33;1.23;;;4.10;99.90;;;;;;5007147;28;20423;-67
2022/01/05 03:11:12;;;;;;;4.73;1.50;;;4.10;99.90;;;;;;4997429;28;20523;-67
2022/01/05 03:13:40;;;;;;;2.47;2.20;;;4.10;99.90;;;;;;4994537;28;20481;-67
2022/01/05 03:16:07;;;;;;;2.27;1.50;;;4.00;99.90;;;;;;4996214;28;20439;-68
2022/01/05 03:18:34;;;;;;;3.13;1.27;;;4.00;99.90;;;;;;4998841;28;20511;-67
2022/01/05 03:21:01;;;;;;;1.00;0.87;;;4.10;99.90;;;;;;4992542;28;20574;-67
2022/01/05 03:23:28;;;;;;;12.70;1.90;;;4.00;99.90;;;;;;4995968;28;20597;-67
2022/01/05 03:25:55;;;;;;;0.97;0.87;;;4.10;99.90;;;;;;4995620;28;20511;-67
2022/01/05 03:28:22;;;;;;;9.87;1.90;;;4.00;99.90;;;;;;5003257;28;20419;-67
2022/01/05 03:30:50;;;;;;;6.10;2.57;;;4.00;99.90;;;;;;5000909;28;20516;-67
2022/01/05 03:33:21;;;;;;;2.93;1.77;;;4.00;99.90;;;;;;4994313;28;20458;-66
2022/01/05 03:35:49;;;;;;;7.83;2.03;;;3.90;99.90;;;;;;4996968;28;20464;-67
2022/01/05 03:38:18;;;;;;;4.00;1.80;;;4.00;99.90;;;;;;5003348;28;20547;-67
2022/01/05 03:40:47;;;;;;;1.90;1.70;;;4.00;99.90;;;;;;4996968;28;20456;-67
2022/01/05 03:43:14;;;;;;;12.13;1.93;;;4.00;99.90;;;;;;5002989;28;20547;-67
2022/01/05 03:45:41;;;;;;;3.37;1.93;;;4.00;99.90;;;;;;5002175;28;20518;-67
2022/01/05 03:48:11;;;;;;;2.60;1.83;;;4.00;99.90;;;;;;5003081;28;20424;-66
2022/01/05 03:50:39;;;;;;;2.43;1.90;;;3.90;99.90;;;;;;5004123;28;20526;-68
2022/01/05 03:53:07;;;;;;;2.90;1.67;;;3.90;99.90;;;;;;5002826;28;20508;-68
2022/01/05 03:55:35;;;;;;;3.10;1.53;;;3.80;99.90;;;;;;4997212;28;20600;-67
2022/01/05 03:58:03;;;;;;;8.60;2.30;;;3.80;99.90;;;;;;5004470;28;20443;-67
2022/01/05 04:00:32;;;;;;;3.03;2.27;;;3.70;99.90;;;;;;5000540;28;20936;-68
2022/01/05 04:03:00;;;;;;;1.60;1.03;;;3.70;99.90;;;;;;4948956;28;20488;-67
2022/01/05 04:05:29;;;;;;;1.40;1.00;;;3.70;99.90;;;;;;4996508;28;20917;-67
2022/01/05 04:07:56;;;;;;;4.87;1.53;;;3.70;99.90;;;;;;4997610;28;20431;-68
2022/01/05 04:10:23;;;;;;;1.00;0.80;;;3.70;99.90;;;;;;4996360;28;20468;-68
2022/01/05 04:12:50;;;;;;;2.07;1.87;;;3.70;99.90;;;;;;4993707;28;21101;-68
2022/01/05 04:15:18;;;;;;;1.20;1.10;;;3.70;99.90;;;;;;5004481;28;20519;-67
2022/01/05 04:17:45;;;;;;;1.73;1.63;;;3.60;99.90;;;;;;5001066;28;20427;-67
2022/01/05 04:20:14;;;;;;;1.83;1.27;;;3.60;99.90;;;;;;4998594;28;20569;-67
2022/01/05 04:22:42;;;;;;;3.13;1.10;;;3.60;99.90;;;;;;4991608;28;20569;-66
2022/01/05 04:25:13;;;;;;;1.90;1.10;;;3.60;99.90;;;;;;5001406;28;20526;-69
2022/01/05 04:27:40;;;;;;;1.50;1.00;;;3.60;99.90;;;;;;5005701;28;20523;-68
2022/01/05 04:30:10;;;;;;;1.70;1.60;;;3.60;99.90;;;;;;5001193;28;20613;-67
2022/01/05 04:32:37;;;;;;;1.83;1.73;;;3.60;99.90;;;;;;5003304;28;20829;-68
2022/01/05 04:35:05;;;;;;;1.30;1.10;;;3.50;99.90;;;;;;5004620;28;21457;-67
2022/01/05 04:37:32;;;;;;;1.80;1.17;;;3.40;99.90;;;;;;4999352;28;20477;-67
2022/01/05 04:40:01;;;;;;;1.47;1.37;;;3.50;99.90;;;;;;5027661;22;20477;-69
2022/01/05 04:42:28;;;;;;;1.20;1.10;;;3.40;99.90;;;;;;5026801;28;20499;-72
2022/01/05 04:44:56;;;;;;;4.20;1.40;;;3.30;99.90;;;;;;5032004;28;20521;-72
2022/01/05 04:47:25;;;;;;;5.03;2.30;;;3.30;99.90;;;;;;5032167;28;20622;-72
2022/01/05 04:49:52;;;;;;;1.07;0.80;;;3.30;99.90;;;;;;5026781;28;20465;-71
2022/01/05 04:52:19;;;;;;;1.70;1.40;;;3.30;99.90;;;;;;5035070;28;21010;-72
2022/01/05 04:54:46;;;;;;;2.70;2.33;;;3.30;99.90;;;;;;5028494;28;20830;-72
2022/01/05 04:57:15;;;;;;;4.30;2.10;;;3.30;99.90;;;;;;5029811;28;20494;-73
2022/01/05 04:59:42;;;;;;;2.40;1.63;;;3.30;99.90;;;;;;5029754;28;20579;-73
2022/01/05 05:02:11;;;;;;;2.40;1.30;;;3.30;99.90;;;;;;5022963;28;20466;-71
2022/01/05 05:04:38;;;;;;;6.00;1.97;;;3.30;99.90;;;;;;5027204;28;20612;-71
2022/01/05 05:07:06;;;;;;;2.50;1.50;;;3.30;99.90;;;;;;5033169;28;20434;-71
2022/01/05 05:09:33;;;;;;;12.13;3.33;;;3.40;99.90;;;;;;5030778;28;20479;-71
2022/01/05 05:12:00;;;;;;;15.83;2.07;;;3.30;99.90;;;;;;5027476;28;20480;-71
2022/01/05 05:14:28;;;;;;;4.30;2.43;;;3.30;99.90;;;;;;5026281;28;20557;-72
2022/01/05 05:16:55;;;;;;;2.50;2.30;;;3.20;99.90;;;;;;5033784;28;20441;-69
2022/01/05 05:19:22;;;;;;;1.67;1.57;;;3.30;99.90;;;;;;5028897;28;20558;-71
2022/01/05 05:21:49;;;;;;;1.20;0.97;;;3.20;99.90;;;;;;5029608;28;20456;-72
2022/01/05 05:24:16;;;;;;;3.50;2.27;;;3.20;99.90;;;;;;5028420;28;20434;-74
2022/01/05 05:26:45;;;;;;;2.40;1.77;;;3.30;99.90;;;;;;5020631;28;20491;-73
2022/01/05 05:29:12;;;;;;;2.23;1.37;;;3.30;99.90;;;;;;5022972;28;20814;-71
2022/01/05 05:31:40;;;;;;;0.90;0.70;;;3.20;99.90;;;;;;5021926;28;20569;-70
2022/01/05 05:34:07;;;;;;;23.50;1.97;;;3.20;99.90;;;;;;5026687;28;20779;-73
2022/01/05 05:36:34;;;;;;;1.20;0.87;;;3.10;99.90;;;;;;5019423;28;20487;-73
2022/01/05 05:39:02;;;;;;;0.90;0.70;;;3.00;99.90;;;;;;5020146;28;21012;-73
2022/01/05 05:41:29;;;;;;;2.37;0.93;;;3.00;99.90;;;;;;5023222;28;22279;-71
2022/01/05 05:43:55;;;;;;;2.97;2.77;;;3.00;99.90;;;;;;5020912;28;20496;-74
2022/01/05 05:46:23;;;;;;;3.67;1.57;;;2.90;99.90;;;;;;5017255;28;21110;-71
2022/01/05 05:48:51;;;;;;;1.43;1.07;;;2.90;99.90;;;;;;5032858;28;20581;-70
2022/01/05 05:51:18;;;;;;;4.93;1.10;;;2.80;99.90;;;;;;5029917;28;20451;-69
2022/01/05 05:53:45;;;;;;;15.73;6.10;;;2.80;99.90;;;;;;5025606;28;20590;-72
2022/01/05 05:56:12;;;;;;;1.10;0.80;;;2.80;99.90;;;;;;5030283;28;20468;-73
2022/01/05 05:58:42;;;;;;;1.67;1.57;;;2.90;99.90;;;;;;5031626;28;20980;-71
2022/01/05 06:01:09;;;;;;;4.30;2.83;;;2.90;99.90;;;;;;5023694;28;20545;-70
2022/01/05 06:03:36;;;;;;;3.00;2.40;;;2.90;99.90;;;;;;5021318;28;20434;-71
2022/01/05 06:06:05;;;;;;;4.60;2.10;;;2.90;99.90;;;;;;5030375;28;20451;-75
2022/01/05 06:08:32;;;;;;;3.13;2.10;;;2.90;99.90;;;;;;5026212;28;20507;-71
2022/01/05 06:10:59;;;;;;;1.77;1.40;;;2.90;99.90;;;;;;5029000;28;20546;-71
2022/01/05 06:13:26;;;;;;;1.67;1.57;;;2.90;99.90;;;;;;5030294;28;21000;-71
2022/01/05 06:15:52;;;;;;;5.93;2.10;;;2.90;99.90;;;;;;5028159;28;20461;-71
2022/01/05 06:18:19;;;;;;;1.40;1.30;;;2.90;99.90;;;;;;5027704;28;20532;-70
2022/01/05 06:20:46;;;;;;;3.30;2.40;;;2.90;99.90;;;;;;5021062;28;20541;-73
2022/01/05 06:23:15;;;;;;;2.07;1.20;;;2.90;99.90;;;;;;5025639;28;20638;-73
2022/01/05 06:25:42;;;;;;;0.90;0.70;;;3.00;99.90;;;;;;5024678;28;20479;-71
2022/01/05 06:28:12;;;;;;;1.40;1.27;;;2.90;99.90;;;;;;5032461;28;20667;-72
2022/01/05 06:30:40;;;;;;;1.23;1.13;;;2.90;99.90;;;;;;5016100;28;20464;-72
2022/01/05 06:33:07;;;;;;;3.17;2.20;;;3.00;99.90;;;;;;5016249;28;20588;-70
2022/01/05 06:35:34;;;;;;;1.40;1.30;;;3.00;99.90;;;;;;5028774;28;20452;-71
2022/01/05 06:38:02;;;;;;;1.50;1.10;;;3.00;99.90;;;;;;5029232;28;20984;-71
2022/01/05 06:40:30;;;;;;;1.87;1.77;;;3.00;99.90;;;;;;5024294;28;20462;-71
2022/01/05 06:42:59;;;;;;;1.60;1.10;;;3.10;99.90;;;;;;5028548;28;20479;-71
2022/01/05 06:45:26;;;;;;;1.30;1.10;;;3.20;99.90;;;;;;5023686;28;20460;-70
2022/01/05 06:47:53;;;;;;;2.63;1.83;;;3.20;99.90;;;;;;5024383;28;20562;-72
2022/01/05 06:50:20;;;;;;;1.87;1.60;;;3.10;99.90;;;;;;5025037;28;20600;-71
2022/01/05 06:52:47;;;;;;;1.27;0.90;;;3.10;99.90;;;;;;5028278;28;20466;-71
2022/01/05 06:55:14;;;;;;;14.73;3.30;;;3.20;99.90;;;;;;5032216;28;20566;-69
2022/01/05 06:57:42;;;;;;;2.87;0.90;;;3.30;99.90;;;;;;5026327;28;28361;-73
2022/01/05 07:00:11;;;;;;;1.30;1.20;;;3.30;99.90;;;;;;5025963;28;20869;-71
2022/01/05 07:02:41;;;;;;;1.33;1.20;;;3.30;99.90;;;;;;5018673;28;20433;-70
2022/01/05 07:05:09;;;;;;;3.53;2.47;;;3.40;99.90;;;;;;5020731;28;20448;-71
2022/01/05 07:07:37;;;;;;;3.17;1.70;;;3.40;99.90;;;;;;5028047;28;20439;-70
2022/01/05 07:10:05;;;;;;;5.57;3.23;;;3.40;99.90;;;;;;5021395;28;20474;-68
2022/01/05 07:12:33;;;;;;;4.07;1.87;;;3.40;99.90;;;;;;5019604;28;20460;-71
2022/01/05 07:15:01;;;;;;;1.10;1.00;;;3.40;99.90;;;;;;5023786;28;20441;-71
2022/01/05 07:17:28;;;;;;;13.57;1.40;;;3.30;99.90;;;;;;5015917;28;20434;-71
2022/01/05 07:19:55;;;;;;;0.90;0.70;;;3.30;99.90;;;;;;5021115;28;20505;-70
2022/01/05 07:22:23;;;;;;;4.53;1.47;;;3.30;99.90;;;;;;5018749;28;20438;-72
2022/01/05 07:24:50;;;;;;;4.63;2.20;;;3.20;99.90;;;;;;5024784;28;20720;-70
2022/01/05 07:27:17;;;;;;;5.83;1.53;;;3.20;99.90;;;;;;5032705;28;21150;-71
2022/01/05 07:29:45;;;;;;;1.50;1.20;;;3.20;99.90;;;;;;5029828;28;20567;-73
2022/01/05 07:32:13;;;;;;;7.93;2.50;;;3.20;99.90;;;;;;5035622;28;20441;-71
2022/01/05 07:34:40;;;;;;;2.20;1.23;;;3.20;99.90;;;;;;5031259;28;20484;-73
2022/01/05 07:37:09;;;;;;;1.07;0.83;;;3.20;99.90;;;;;;5034367;28;20442;-75
2022/01/05 07:39:36;;;;;;;8.53;6.00;;;3.20;99.90;;;;;;5026210;28;20492;-75
2022/01/05 07:42:04;;;;;;;1.90;1.77;;;3.20;99.90;;;;;;5029955;28;20466;-70
2022/01/05 07:44:31;;;;;;;3.03;2.30;;;3.20;99.90;;;;;;5025224;28;20517;-71
2022/01/05 07:46:58;;;;;;;3.53;2.43;;;3.30;99.90;;;;;;5027822;28;20441;-72
2022/01/05 07:49:26;;;;;;;2.10;1.90;;;3.20;99.90;;;;;;5024390;28;20552;-72
2022/01/05 07:51:53;;;;;;;3.17;1.50;;;3.20;99.90;;;;;;5021988;28;20441;-71
2022/01/05 07:54:20;;;;;;;3.93;2.00;;;3.30;99.90;;;;;;5030496;28;20640;-73
2022/01/05 07:56:47;;;;;;;2.40;1.13;;;3.30;99.90;;;;;;5028307;28;20554;-73
2022/01/05 07:59:14;;;;;;;3.23;1.50;;;3.30;99.90;;;;;;5026726;28;20549;-69
2022/01/05 08:01:41;;;;;;;1.70;1.60;;;3.40;99.90;;;;;;5034645;28;20447;-70
2022/01/05 08:04:08;;;;;;;5.00;3.37;;;3.40;99.90;;;;;;5032604;28;20434;-71
2022/01/05 08:06:37;;;;;;;2.60;1.87;;;3.30;99.90;;;;;;5021737;28;20445;-70
2022/01/05 08:09:06;;;;;;;1.77;1.53;;;3.30;99.90;;;;;;5027339;28;20465;-71
2022/01/05 08:11:33;;;;;;;3.07;1.83;;;3.40;99.90;;;;;;5024378;28;20429;-71
2022/01/05 08:14:00;;;;;;;2.23;2.03;;;3.50;99.90;;;;;;5022408;28;20455;-71
2022/01/05 08:16:27;;;;;;;5.20;1.83;;;3.50;99.90;;;;;;5032578;28;20561;-72
2022/01/05 08:18:54;;;;;;;1.67;1.13;;;3.60;99.90;;;;;;5037808;28;20450;-71
2022/01/05 08:21:22;;;;;;;2.40;1.67;;;3.70;99.90;;;;;;5029924;28;20520;-70
2022/01/05 08:23:51;;;;;;;7.23;2.37;;;3.70;99.90;;;;;;5030914;28;21659;-73
2022/01/05 08:26:18;;;;;;;1.50;1.40;;;3.60;99.90;;;;;;5024349;28;20463;-70
2022/01/05 08:28:45;;;;;;;9.53;4.20;;;3.70;99.90;;;;;;5019984;28;20568;-70
2022/01/05 08:31:12;;;;;;;2.87;2.37;;;3.70;99.90;;;;;;5034746;28;20517;-69
2022/01/05 08:33:40;;;;;;;2.70;2.60;;;3.80;99.90;;;;;;5036103;28;20917;-71
2022/01/05 08:36:07;;;;;;;26.43;3.23;;;3.90;99.90;;;;;;5037766;28;20488;-71
2022/01/05 08:38:35;;;;;;;2.80;1.27;;;3.90;99.90;;;;;;5031553;28;20487;-72
2022/01/05 08:41:04;;;;;;;3.47;1.73;;;3.90;99.90;;;;;;5032076;28;20444;-72
2022/01/05 08:43:33;;;;;;;4.70;2.80;;;3.90;99.90;;;;;;5033876;28;20430;-70
2022/01/05 08:46:03;;;;;;;3.10;2.80;;;3.90;99.90;;;;;;5035229;28;20453;-70
2022/01/05 08:48:30;;;;;;;5.23;1.50;;;3.90;99.90;;;;;;5036043;28;20438;-71
2022/01/05 08:50:57;;;;;;;3.30;3.00;;;3.70;99.90;;;;;;5027380;28;20426;-70
2022/01/05 08:53:25;;;;;;;6.60;1.47;;;3.80;99.90;;;;;;5025135;28;20485;-70
2022/01/05 08:55:52;;;;;;;2.20;1.70;;;3.80;99.90;;;;;;5027437;28;22020;-73
2022/01/05 08:58:21;;;;;;;5.53;2.77;;;3.80;99.90;;;;;;5025202;28;20441;-70
2022/01/05 09:00:49;;;;;;;5.20;2.47;;;3.80;99.90;;;;;;5027069;28;20419;-70
2022/01/05 09:03:17;;;;;;;1.10;0.90;;;3.80;99.90;;;;;;5025629;28;20439;-73
2022/01/05 09:05:45;;;;;;;0.97;0.73;;;3.70;99.90;;;;;;5025582;28;20466;-74
2022/01/05 09:08:12;;;;;;;1.10;0.90;;;3.80;99.90;;;;;;5018019;28;20438;-71
2022/01/05 09:10:39;;;;;;;2.67;1.77;;;3.90;99.90;;;;;;5010214;28;20439;-69
2022/01/05 09:13:09;;;;;;;2.90;1.80;;;3.90;99.90;;;;;;5001345;28;20484;-71
2022/01/05 09:15:38;;;;;;;5.50;2.70;;;3.90;99.90;;;;;;5013162;28;20830;-69
2022/01/05 09:18:05;;;;;;;2.93;1.43;;;4.00;99.90;;;;;;5019869;28;20568;-75
2022/01/05 09:20:33;;;;;;;4.87;2.47;;;4.00;99.90;;;;;;5021810;28;20446;-72
2022/01/05 09:23:02;;;;;;;5.03;2.90;;;4.00;99.90;;;;;;5017176;28;21219;-71
2022/01/05 09:25:29;;;;;;;2.60;1.53;;;4.00;99.90;;;;;;5020897;28;20596;-70
2022/01/05 09:27:56;;;;;;;4.70;2.43;;;4.00;99.90;;;;;;5029262;28;20426;-74
2022/01/05 09:30:23;;;;;;;9.13;3.83;;;4.00;99.90;;;;;;5029821;28;20943;-72
2022/01/05 09:32:52;;;;;;;3.23;2.60;;;4.00;99.90;;;;;;5028185;28;20890;-71
2022/01/05 09:35:22;;;;;;;5.63;2.30;;;3.90;99.90;;;;;;5021200;28;20915;-73
2022/01/05 09:37:54;;;;;;;3.33;1.80;;;3.90;99.90;;;;;;5025036;28;20874;-71
2022/01/05 09:43:08;;;;;;;3.17;2.60;;;4.00;99.90;;;;;;5027494;28;20931;-73
2022/01/05 09:45:38;;;;;;;12.20;2.20;;;4.00;99.90;;;;;;5030215;28;21223;-72
2022/01/05 09:48:30;;;;;;;2.63;1.50;;;4.10;99.90;;;;;;5027209;28;21037;-72
2022/01/05 09:51:02;;;;;;;11.20;1.70;;;4.10;99.90;;;;;;5034066;28;20430;-72
2022/01/05 09:53:32;;;;;;;2.37;2.10;;;4.00;99.90;;;;;;5033218;28;20468;-72
2022/01/05 09:56:00;;;;;;;6.30;3.00;;;4.10;99.90;;;;;;5030303;28;20461;-71
2022/01/05 09:58:29;;;;;;;6.87;2.37;;;4.10;99.90;;;;;;5040177;28;20427;-73
2022/01/05 10:00:56;;;;;;;4.90;2.37;;;4.20;99.90;;;;;;5026760;28;20464;-71
2022/01/05 10:03:23;;;;;;;5.97;4.67;;;4.20;99.90;;;;;;5026539;28;20525;-70
2022/01/05 10:05:52;;;;;;;2.70;2.30;;;4.20;99.90;;;;;;5028189;28;20521;-73
2022/01/05 10:08:19;;;;;;;1.27;1.17;;;4.10;99.90;;;;;;5031152;28;20793;-73
2022/01/05 10:10:46;;;;;;;3.53;1.30;;;4.00;99.90;;;;;;5027955;28;20570;-71
2022/01/05 10:13:13;;;;;;;4.07;3.67;;;4.10;99.90;;;;;;5036549;28;20807;-72
2022/01/05 10:15:41;;;;;;;3.40;2.80;;;4.10;99.90;;;;;;5028001;28;20516;-74
2022/01/05 10:18:13;;;;;;;1.60;1.50;;;4.10;99.90;;;;;;5030043;28;21046;-73
2022/01/05 10:20:57;;;;;;;3.83;3.57;;;4.00;99.90;;;;;;5033510;28;20505;-71
2022/01/05 10:23:39;;;;;;;4.10;3.10;;;3.90;99.90;;;;;;5023903;28;20446;-71
2022/01/05 10:26:29;;;;;;;2.20;2.00;;;3.90;99.90;;;;;;5023656;28;20863;-73
2022/01/05 10:28:58;;;;;;;5.83;2.40;;;3.80;99.90;;;;;;5017398;28;21067;-72
2022/01/05 10:31:27;;;;;;;2.23;1.83;;;3.80;99.90;;;;;;5023190;28;20479;-74
2022/01/05 10:33:55;;;;;;;4.63;2.30;;;3.80;99.90;;;;;;5021059;28;21142;-73
2022/01/05 10:36:23;;;;;;;3.90;3.53;;;3.80;99.90;;;;;;5034965;28;20998;-72
2022/01/05 10:38:58;;;;;;;4.67;4.27;;;3.80;99.90;;;;;;5019824;28;20577;-75
2022/01/05 10:41:27;;;;;;;1.77;1.67;;;3.90;99.90;;;;;;5031667;28;20466;-71
2022/01/05 10:44:18;;;;;;;6.77;2.43;;;3.90;99.90;;;;;;5031428;28;20430;-71
2022/01/05 10:46:47;;;;;;;2.13;1.93;;;4.00;99.90;;;;;;5029959;28;20525;-73
2022/01/05 10:49:29;;;;;;;6.13;2.53;;;4.00;99.90;;;;;;5033809;28;22575;-71
2022/01/05 10:52:00;;;;;;;4.27;2.97;;;4.00;99.90;;;;;;5026760;28;20449;-71
2022/01/05 10:57:12;;;;;;;3.33;2.00;;;4.10;99.90;;;;;;5046437;22;20989;-69
2022/01/05 10:59:43;;;;;;;5.90;2.37;;;4.10;99.90;;;;;;5024060;28;20513;-68
2022/01/05 11:02:27;;;;;;;2.13;1.83;;;4.10;99.90;;;;;;5027539;28;20819;-69
2022/01/05 11:04:58;;;;;;;8.80;3.17;;;4.10;99.90;;;;;;5022321;28;20496;-67
2022/01/05 11:07:29;;;;;;;2.90;2.13;;;4.20;99.90;;;;;;5006053;28;20457;-68
2022/01/05 11:09:58;;;;;;;3.50;2.20;;;4.10;99.90;;;;;;5005677;28;20945;-69
2022/01/05 11:12:33;;;;;;;4.87;2.20;;;4.10;99.90;;;;;;4998567;28;20460;-68
2022/01/05 11:15:27;;;;;;;5.30;4.77;;;4.00;99.90;;;;;;5014079;28;20495;-70
2022/01/05 11:18:12;;;;;;;18.13;2.33;;;4.00;99.90;;;;;;5005023;28;20572;-70
2022/01/05 11:20:43;;;;;;;2.70;2.50;;;3.90;99.90;;;;;;4999721;28;20495;-71
2022/01/05 11:23:12;;;;;;;3.30;3.00;;;3.90;99.90;;;;;;5010711;28;20935;-71
2022/01/05 11:25:41;;;;;;;2.33;2.13;;;3.80;99.90;;;;;;5004879;28;20471;-69
2022/01/05 11:28:09;;;;;;;5.63;3.13;;;3.80;99.90;;;;;;5012168;28;20453;-70
2022/01/05 11:30:37;;;;;;;6.77;5.03;;;3.80;99.90;;;;;;5008994;28;20460;-69
2022/01/05 11:33:05;;;;;;;2.70;1.90;;;3.80;99.90;;;;;;5005437;28;20512;-68
2022/01/05 11:35:32;;;;;;;1.70;1.60;;;3.80;99.90;;;;;;5015859;28;20551;-70
2022/01/05 11:37:59;;;;;;;2.30;2.10;;;3.80;99.90;;;;;;5014123;28;20434;-68
2022/01/05 11:40:30;;;;;;;2.73;2.53;;;3.90;99.90;;;;;;5016868;28;20419;-69
2022/01/05 11:43:01;;;;;;;6.27;2.77;;;3.80;99.90;;;;;;5010248;28;20456;-69
2022/01/05 11:45:31;;;;;;;17.67;4.30;;;3.90;99.90;;;;;;5006442;28;20537;-70
2022/01/05 11:48:13;;;;;;;29.57;3.50;;;3.90;99.90;;;;;;5006227;28;20911;-69
2022/01/05 11:50:45;;;;;;;2.80;2.10;;;4.00;99.90;;;;;;5015043;28;20524;-70
2022/01/05 11:53:12;;;;;;;4.17;2.80;;;4.10;99.90;;;;;;5010300;28;20457;-69
2022/01/05 11:56:06;;;;;;;5.83;4.40;;;4.20;99.90;;;;;;5009226;28;20487;-70
2022/01/05 11:58:34;;;;;;;11.30;2.60;;;4.00;99.90;;;;;;5011106;28;20459;-70
2022/01/05 12:01:25;;;;;;;4.40;4.00;;;3.90;99.90;;;;;;4997608;28;20499;-70
2022/01/05 12:04:11;;;;;;;4.13;2.70;;;3.90;99.90;;;;;;4994527;28;20464;-69
2022/01/05 12:07:08;;;;;;;3.03;2.60;;;4.00;99.90;;;;;;5002338;28;20569;-70
2022/01/05 12:09:40;;;;;;;6.93;2.97;;;4.10;99.90;;;;;;4997856;28;20885;-70
2022/01/05 12:12:53;;;;;;;1.67;1.57;;;4.10;99.90;;;;;;4994769;28;20551;-70
2022/01/05 12:15:43;;;;;;;7.63;3.27;;;4.10;99.90;;;;;;4990103;28;20471;-68
2022/01/05 12:18:10;;;;;;;4.13;3.23;;;4.20;99.90;;;;;;5006432;28;20439;-70
2022/01/05 12:20:39;;;;;;;3.37;1.73;;;4.30;99.90;;;;;;4999694;28;20507;-71
2022/01/05 12:23:17;;;;;;;8.03;3.73;;;4.30;99.90;;;;;;4995186;28;21140;-67
2022/01/05 12:26:15;;;;;;;6.10;3.43;;;4.30;99.90;;;;;;4982736;28;20464;-68
2022/01/05 12:28:55;;;;;;;12.70;4.47;;;4.40;99.90;;;;;;4965100;28;20423;-69
2022/01/05 12:31:55;;;;;;;17.63;5.10;;;4.40;99.90;;;;;;5012568;28;20426;-70
2022/01/05 12:34:51;;;;;;;5.40;3.30;;;4.40;99.90;;;;;;5006251;28;20856;-68
2022/01/05 12:37:47;;;;;;;4.63;4.23;;;4.50;99.90;;;;;;5018281;28;20431;-70
2022/01/05 12:40:32;;;;;;;3.20;3.00;;;4.40;99.90;;;;;;4997988;28;20931;-68
2022/01/05 12:43:34;;;;;;;4.33;3.87;;;4.40;99.90;;;;;;5000700;28;20472;-69
2022/01/05 12:46:07;;;;;;;3.10;2.30;;;4.40;99.90;;;;;;4933208;28;20543;-67
2022/01/05 12:49:00;;;;;;;3.00;2.20;;;4.40;99.90;;;;;;4992071;28;20568;-70
2022/01/05 12:51:44;;;;;;;2.90;2.40;;;4.30;99.90;;;;;;4989862;28;20488;-69
2022/01/05 12:54:13;;;;;;;3.13;2.40;;;4.40;99.90;;;;;;4999398;28;20426;-68
2022/01/05 12:56:44;;;;;;;12.20;2.60;;;4.50;99.90;;;;;;5012168;28;20495;-69
2022/01/05 12:59:14;;;;;;;2.93;2.03;;;4.40;99.90;;;;;;5001345;28;21110;-69
2022/01/05 13:01:44;;;;;;;3.63;3.00;;;4.40;99.90;;;;;;4997658;28;20436;-71
2022/01/05 13:04:12;;;;;;;2.27;1.50;;;4.50;99.90;;;;;;4994708;28;20492;-68
2022/01/05 13:06:41;;;;;;;2.67;2.20;;;4.50;99.90;;;;;;5006541;28;20455;-72
2022/01/05 13:09:10;;;;;;;2.77;2.50;;;4.50;99.90;;;;;;5001667;28;20578;-69
2022/01/05 13:11:40;;;;;;;2.10;1.90;;;4.60;99.90;;;;;;5006536;28;20461;-70
2022/01/05 13:14:20;;;;;;;2.43;1.90;;;4.70;99.90;;;;;;4996563;28;20448;-68
2022/01/05 13:16:51;;;;;;;1.60;1.50;;;4.70;99.90;;;;;;5002213;28;20473;-68